US EPA Bold — WAA2245 — position and weather

sailwx.info

Track history (hours):
 
Tides and Currents Weather Stations Pressure Air Temp Water Temp Dewpoint Dewpoint Depression Visibility Wind Speed Wind Dir Waves Ship Positions

Oceanographic research ship US EPA Bold (USA)

Ship's website: http://www.epa.gov/bold/

Last reported at 2013-Aug-22 16:12 UTC. Time now 2017-Oct-20 03:44 UTC.
Position N 47°40' W 122°23'.
Warning: this ship's position is years out of date!

Length 67 m; draft 4.7 m.

Type: Cargo ship. MMSI: 367839000.

Date/timePositionNaut miles runAvg speedWind from/ knotsBaromVisibWave heightAir tempDewpointWater temp
2013-Aug-22 16:12N 47°40' W 122°23'0 0.0
2013-Aug-22 15:33N 47°40' W 122°23'0 0.0
2013-Aug-22 14:33N 47°40' W 122°23'0 0.0
2013-Aug-22 13:34N 47°40' W 122°23'0 0.0
2013-Aug-22 12:32N 47°40' W 122°23'0 0.0
2013-Aug-22 11:34N 47°40' W 122°23'0 0.0
2013-Aug-22 10:33N 47°40' W 122°23'0 0.0
2013-Aug-22 09:33N 47°40' W 122°23'0 0.0
2013-Aug-22 08:33N 47°40' W 122°23'0 0.0
2013-Aug-22 07:33N 47°40' W 122°23'0 0.0
2013-Aug-22 06:33N 47°40' W 122°23'0 0.0
2013-Aug-22 05:33N 47°40' W 122°23'0 0.0
2013-Aug-22 04:33N 47°40' W 122°23'0 0.0
2013-Aug-22 03:33N 47°40' W 122°23'0 0.0
2013-Aug-22 02:33N 47°40' W 122°23'0 0.0
2013-Aug-22 01:34N 47°40' W 122°23'0 0.0
2013-Aug-22 00:33N 47°40' W 122°23'0 0.0
2013-Aug-21 23:33N 47°40' W 122°23'0 0.0
2013-Aug-21 22:33N 47°40' W 122°23'0 0.0
2013-Aug-21 21:33N 47°40' W 122°23'0 0.0
2013-Aug-21 20:33N 47°40' W 122°23'0 0.0
2013-Aug-21 19:33N 47°40' W 122°23'0 0.0
2013-Aug-21 18:33N 47°40' W 122°23'0 0.0
2013-Aug-21 17:33N 47°40' W 122°23'0 0.0
2013-Aug-21 16:33N 47°40' W 122°23'1 0.8
2013-Aug-21 15:33N 47°40' W 122°24'2 1.8
2013-Aug-21 14:34N 47°41' W 122°26'5 5.1
2013-Aug-21 13:34N 47°46' W 122°27'7 7.1
2013-Aug-21 12:33N 47°53' W 122°29'6 6.0
2013-Aug-21 11:33N 47°58' W 122°35'7 6.9
2013-Aug-21 10:33N 48°04' W 122°40'6 6.3
2013-Aug-21 09:33N 48°09' W 122°44'7 7.2
2013-Aug-21 08:33N 48°11' W 122°55'8 8.3
2013-Aug-21 07:33N 48°12' W 123°07'7 7.4
2013-Aug-21 06:34N 48°13' W 123°18'8 7.6
2013-Aug-21 05:33N 48°13' W 123°30'7 7.1
2013-Aug-21 04:34N 48°13' W 123°40'8 7.2
2013-Aug-21 03:27N 48°13' W 123°52'6 7.0
2013-Aug-21 02:33N 48°15' W 124°01'23 7.0
2013-Aug-20 23:18N 48°25' W 124°32'6 7.1
2013-Aug-20 22:26N 48°27' W 124°41'7 7.4
2013-Aug-20 21:25N 48°28' W 124°52'7 7.2
2013-Aug-20 20:25N 48°29' W 125°03'16 8.1
2013-Aug-20 18:29N 48°28' W 125°26'8 8.4
2013-Aug-20 17:32N 48°28' W 125°38'97 6.1
2013-Aug-20 01:31N 47°06' W 124°21'5 5.5
2013-Aug-20 00:33N 47°01' W 124°19'6 5.5
2013-Aug-19 23:27N 46°55' W 124°18'4 4.8
2013-Aug-19 22:33N 46°51' W 124°17'5 4.8
2013-Aug-19 21:33N 46°46' W 124°15'5 5.0
2013-Aug-19 20:32N 46°41' W 124°13'59 7.2
2013-Aug-19 12:20N 45°43' W 124°03'  
2013-Aug-17 06:32N 38°35' W 123°27'8 8.6
2013-Aug-17 05:33N 38°29' W 123°20'8 8.5
2013-Aug-17 04:33N 38°23' W 123°13'8 8.3
2013-Aug-17 03:33N 38°16' W 123°07'9 8.8
2013-Aug-17 02:33N 38°07' W 123°07'9 9.4
2013-Aug-17 01:33N 37°58' W 123°07'9 8.4
2013-Aug-17 00:32N 37°50' W 123°03'9 8.8
2013-Aug-16 23:33N 37°43' W 122°56'9 8.6
2013-Aug-16 22:33N 37°36' W 122°50'8 8.6
2013-Aug-16 21:33N 37°28' W 122°46'8 7.8
2013-Aug-16 20:32N 37°22' W 122°39'9 8.7
2013-Aug-16 19:33N 37°15' W 122°33'215 8.3
2013-Aug-15 17:34N 34°16' W 120°06'54 9.0
2013-Aug-15 11:33N 34°00' W 119°04'9 9.5
2013-Aug-15 10:33N 33°56' W 118°54'9 9.3
2013-Aug-15 09:34N 33°51' W 118°44'9 9.4
2013-Aug-15 08:34N 33°47' W 118°34'9 9.4
2013-Aug-15 07:34N 33°42' W 118°24'9 9.1
2013-Aug-15 06:33N 33°37' W 118°15'9 9.3
2013-Aug-15 05:34N 33°32' W 118°06'9 9.5
2013-Aug-15 04:34N 33°28' W 117°56'9 8.7
2013-Aug-15 03:33N 33°22' W 117°49'9 8.9
2013-Aug-15 02:33N 33°14' W 117°43'9 9.2
2013-Aug-15 01:34N 33°07' W 117°36'9 8.8
2013-Aug-15 00:33N 32°60' W 117°30'9 8.7
2013-Aug-14 23:33N 32°53' W 117°24'9 8.5
2013-Aug-14 22:34N 32°44' W 117°22'8 8.3
2013-Aug-14 21:33N 32°36' W 117°19'9 8.7
2013-Aug-14 20:33N 32°28' W 117°17'56 8.9
2013-Aug-14 14:16N 31°34' W 117°01'  
Track history (hours):
 
Tides and Currents Weather Stations Pressure Air Temp Water Temp Dewpoint Dewpoint Depression Visibility Wind Speed Wind Dir Waves Ship Positions

Oceanographic research ship US EPA Bold (USA)

Ship's website: http://www.epa.gov/bold/

Last reported at 2013-Aug-22 16:12 UTC. Time now 2017-Oct-20 03:44 UTC.
Position N 47°40' W 122°23'.
Warning: this ship's position is years out of date!

Length 67 m; draft 4.7 m.

Type: Cargo ship. MMSI: 367839000.

Date/timePositionNaut miles runAvg speedWind from/ knotsBaromVisibWave heightAir tempDewpointWater temp
2013-Aug-22 16:12N 47°40' W 122°23'0 0.0
2013-Aug-22 15:33N 47°40' W 122°23'0 0.0
2013-Aug-22 14:33N 47°40' W 122°23'0 0.0
2013-Aug-22 13:34N 47°40' W 122°23'0 0.0
2013-Aug-22 12:32N 47°40' W 122°23'0 0.0
2013-Aug-22 11:34N 47°40' W 122°23'0 0.0
2013-Aug-22 10:33N 47°40' W 122°23'0 0.0
2013-Aug-22 09:33N 47°40' W 122°23'0 0.0
2013-Aug-22 08:33N 47°40' W 122°23'0 0.0
2013-Aug-22 07:33N 47°40' W 122°23'0 0.0
2013-Aug-22 06:33N 47°40' W 122°23'0 0.0
2013-Aug-22 05:33N 47°40' W 122°23'0 0.0
2013-Aug-22 04:33N 47°40' W 122°23'0 0.0
2013-Aug-22 03:33N 47°40' W 122°23'0 0.0
2013-Aug-22 02:33N 47°40' W 122°23'0 0.0
2013-Aug-22 01:34N 47°40' W 122°23'0 0.0
2013-Aug-22 00:33N 47°40' W 122°23'0 0.0
2013-Aug-21 23:33N 47°40' W 122°23'0 0.0
2013-Aug-21 22:33N 47°40' W 122°23'0 0.0
2013-Aug-21 21:33N 47°40' W 122°23'0 0.0
2013-Aug-21 20:33N 47°40' W 122°23'0 0.0
2013-Aug-21 19:33N 47°40' W 122°23'0 0.0
2013-Aug-21 18:33N 47°40' W 122°23'0 0.0
2013-Aug-21 17:33N 47°40' W 122°23'0 0.0
2013-Aug-21 16:33N 47°40' W 122°23'1 0.8
2013-Aug-21 15:33N 47°40' W 122°24'2 1.8
2013-Aug-21 14:34N 47°41' W 122°26'5 5.1
2013-Aug-21 13:34N 47°46' W 122°27'7 7.1
2013-Aug-21 12:33N 47°53' W 122°29'6 6.0
2013-Aug-21 11:33N 47°58' W 122°35'7 6.9
2013-Aug-21 10:33N 48°04' W 122°40'6 6.3
2013-Aug-21 09:33N 48°09' W 122°44'7 7.2
2013-Aug-21 08:33N 48°11' W 122°55'8 8.3
2013-Aug-21 07:33N 48°12' W 123°07'7 7.4
2013-Aug-21 06:34N 48°13' W 123°18'8 7.6
2013-Aug-21 05:33N 48°13' W 123°30'7 7.1
2013-Aug-21 04:34N 48°13' W 123°40'8 7.2
2013-Aug-21 03:27N 48°13' W 123°52'6 7.0
2013-Aug-21 02:33N 48°15' W 124°01'23 7.0
2013-Aug-20 23:18N 48°25' W 124°32'6 7.1
2013-Aug-20 22:26N 48°27' W 124°41'7 7.4
2013-Aug-20 21:25N 48°28' W 124°52'7 7.2
2013-Aug-20 20:25N 48°29' W 125°03'16 8.1
2013-Aug-20 18:29N 48°28' W 125°26'8 8.4
2013-Aug-20 17:32N 48°28' W 125°38'97 6.1
2013-Aug-20 01:31N 47°06' W 124°21'5 5.5
2013-Aug-20 00:33N 47°01' W 124°19'6 5.5
2013-Aug-19 23:27N 46°55' W 124°18'4 4.8
2013-Aug-19 22:33N 46°51' W 124°17'5 4.8
2013-Aug-19 21:33N 46°46' W 124°15'5 5.0
2013-Aug-19 20:32N 46°41' W 124°13'59 7.2
2013-Aug-19 12:20N 45°43' W 124°03'  
2013-Aug-17 06:32N 38°35' W 123°27'8 8.6
2013-Aug-17 05:33N 38°29' W 123°20'8 8.5
2013-Aug-17 04:33N 38°23' W 123°13'8 8.3
2013-Aug-17 03:33N 38°16' W 123°07'9 8.8
2013-Aug-17 02:33N 38°07' W 123°07'9 9.4
2013-Aug-17 01:33N 37°58' W 123°07'9 8.4
2013-Aug-17 00:32N 37°50' W 123°03'9 8.8
2013-Aug-16 23:33N 37°43' W 122°56'9 8.6
2013-Aug-16 22:33N 37°36' W 122°50'8 8.6
2013-Aug-16 21:33N 37°28' W 122°46'8 7.8
2013-Aug-16 20:32N 37°22' W 122°39'9 8.7
2013-Aug-16 19:33N 37°15' W 122°33'215 8.3
2013-Aug-15 17:34N 34°16' W 120°06'54 9.0
2013-Aug-15 11:33N 34°00' W 119°04'9 9.5
2013-Aug-15 10:33N 33°56' W 118°54'9 9.3
2013-Aug-15 09:34N 33°51' W 118°44'9 9.4
2013-Aug-15 08:34N 33°47' W 118°34'9 9.4
2013-Aug-15 07:34N 33°42' W 118°24'9 9.1
2013-Aug-15 06:33N 33°37' W 118°15'9 9.3
2013-Aug-15 05:34N 33°32' W 118°06'9 9.5
2013-Aug-15 04:34N 33°28' W 117°56'9 8.7
2013-Aug-15 03:33N 33°22' W 117°49'9 8.9
2013-Aug-15 02:33N 33°14' W 117°43'9 9.2
2013-Aug-15 01:34N 33°07' W 117°36'9 8.8
2013-Aug-15 00:33N 32°60' W 117°30'9 8.7
2013-Aug-14 23:33N 32°53' W 117°24'9 8.5
2013-Aug-14 22:34N 32°44' W 117°22'8 8.3
2013-Aug-14 21:33N 32°36' W 117°19'9 8.7
2013-Aug-14 20:33N 32°28' W 117°17'56 8.9
2013-Aug-14 14:16N 31°34' W 117°01'  

Dump ship's entire track history